Time;durP1;ratioP1;P1;durP2;ratioP2;P2;SDS_P1;SDS_P2;PMS_P1;PMS_P2;Temp;Humidity;BMP_temperature;BMP_pressure;BME280_temperature;BME280_humidity;BME280_pressure;Samples;Min_cycle;Max_cycle;Signal;HPM_P1;HPM_P2
2021/07/21 00:00:53;;;;;;;;;;;;;;;25.63;41.77;102306.44;4947398;29;19926;-86
2021/07/21 00:03:19;;;;;;;;;;;;;;;25.25;42.52;102316.22;4948502;29;19918;-90
2021/07/21 00:05:44;;;;;;;;;;;;;;;25.65;41.60;102303.53;4964713;29;19965;-90
2021/07/21 00:08:10;;;;;;;;;;;;;;;25.50;42.06;102299.34;4947949;29;19919;-89
2021/07/21 00:10:36;;;;;;;;;;;;;;;25.78;41.26;102312.50;4948086;29;19922;-90
2021/07/21 00:15:56;;;;;;;;;;;;;;;25.46;41.99;102309.84;4964794;29;19957;-91
2021/07/21 00:20:05;;;;;;;;;;;;;;;25.07;42.71;102304.84;4947642;29;19977;-91
2021/07/21 00:21:08;;;;;;;;;;;;;;;25.18;42.43;102312.22;4957623;29;19919;-89
2021/07/21 00:23:35;;;;;;;;;;;;;;;25.56;41.57;102298.81;4947511;29;19934;-90
2021/07/21 00:26:00;;;;;;;;;;;;;;;25.61;41.88;102307.63;4946977;29;19918;-89
2021/07/21 00:28:26;;;;;;;;;;;;;;;25.77;41.32;102307.09;4964664;29;19919;-90
2021/07/21 00:30:51;;;;;;;;;;;;;;;25.78;41.11;102298.66;4948128;29;19923;-90
2021/07/21 00:33:18;;;;;;;;;;;;;;;25.79;41.02;102303.19;4954067;28;19914;-89
2021/07/21 00:35:44;;;;;;;;;;;;;;;25.77;41.15;102310.78;4965498;29;19929;-91
2021/07/21 00:38:09;;;;;;;;;;;;;;;25.75;41.04;102303.59;4965760;29;19922;-90
2021/07/21 00:40:35;;;;;;;;;;;;;;;25.73;41.27;102300.97;4964280;29;19929;-90
2021/07/21 00:43:00;;;;;;;;;;;;;;;25.69;41.47;102302.25;4956990;29;19934;-90
2021/07/21 00:45:26;;;;;;;;;;;;;;;25.70;41.59;102303.16;4952035;29;19981;-90
2021/07/21 00:47:51;;;;;;;;;;;;;;;25.73;41.55;102300.97;4951227;29;20013;-89
2021/07/21 00:50:16;;;;;;;;;;;;;;;25.71;41.90;102303.00;4950239;29;20411;-90
2021/07/21 00:52:42;;;;;;;;;;;;;;;25.37;42.24;102300.44;4950903;29;19919;-89
2021/07/21 00:55:09;;;;;;;;;;;;;;;25.54;41.83;102296.19;4950118;29;19937;-90
2021/07/21 00:57:35;;;;;;;;;;;;;;;25.36;42.65;102303.34;4949852;29;19972;-90
2021/07/21 01:00:00;;;;;;;;;;;;;;;25.44;42.17;102296.13;4950494;29;19982;-91
2021/07/21 01:02:25;;;;;;;;;;;;;;;25.53;42.13;102304.63;4949690;29;20041;-90
2021/07/21 01:04:51;;;;;;;;;;;;;;;25.35;42.49;102304.34;4949821;29;19929;-90
2021/07/21 01:07:17;;;;;;;;;;;;;;;25.43;42.12;102291.59;4949744;29;20368;-91
2021/07/21 01:09:44;;;;;;;;;;;;;;;25.00;42.98;102297.19;4949863;29;19942;-89
2021/07/21 01:12:16;;;;;;;;;;;;;;;25.16;42.73;102292.09;4950203;29;19922;-91
2021/07/21 01:14:47;;;;;;;;;;;;;;;25.33;42.26;102295.31;4950759;29;19925;-90
2021/07/21 01:17:15;;;;;;;;;;;;;;;25.44;42.41;102306.34;4950328;29;19918;-90
2021/07/21 01:19:59;;;;;;;;;;;;;;;25.18;42.76;102306.66;4950593;29;19918;-90
2021/07/21 01:22:27;;;;;;;;;;;;;;;24.95;43.62;102303.13;4950199;29;19918;-90
2021/07/21 01:24:52;;;;;;;;;;;;;;;25.00;43.24;102303.63;4949994;29;19983;-89
2021/07/21 01:27:26;;;;;;;;;;;;;;;25.10;42.54;102300.94;4949577;29;19922;-89
2021/07/21 01:29:55;;;;;;;;;;;;;;;25.01;42.86;102302.59;4949986;29;19918;-89
2021/07/21 01:32:23;;;;;;;;;;;;;;;24.97;43.00;102303.91;4949893;29;20425;-89
2021/07/21 01:34:51;;;;;;;;;;;;;;;25.08;42.63;102300.19;4949796;29;19946;-90
2021/07/21 01:37:18;;;;;;;;;;;;;;;24.99;42.89;102293.56;4949718;29;19918;-90
2021/07/21 01:39:44;;;;;;;;;;;;;;;25.11;43.08;102292.50;4949366;29;19918;-87
2021/07/21 01:42:12;;;;;;;;;;;;;;;25.12;42.63;102297.03;4949434;29;19942;-89
2021/07/21 01:44:39;;;;;;;;;;;;;;;25.00;43.04;102294.44;4948087;29;19929;-90
2021/07/21 01:47:05;;;;;;;;;;;;;;;25.21;42.33;102294.47;4949722;29;19918;-90
2021/07/21 01:49:31;;;;;;;;;;;;;;;25.09;42.84;102297.28;4949624;29;19981;-90
2021/07/21 01:51:57;;;;;;;;;;;;;;;24.77;43.36;102298.19;4948624;29;19993;-90
2021/07/21 01:54:24;;;;;;;;;;;;;;;24.61;43.64;102292.19;4966245;29;20394;-89
2021/07/21 01:56:50;;;;;;;;;;;;;;;24.71;43.13;102300.56;4965998;29;19918;-90
2021/07/21 01:59:16;;;;;;;;;;;;;;;24.84;42.90;102304.06;4949434;29;20070;-90
2021/07/21 02:01:42;;;;;;;;;;;;;;;24.67;42.86;102302.75;4949515;29;19918;-90
2021/07/21 02:04:07;;;;;;;;;;;;;;;24.16;44.52;102308.81;4949644;29;19962;-90
2021/07/21 02:06:33;;;;;;;;;;;;;;;24.04;44.93;102307.94;4949661;29;19919;-90
2021/07/21 02:08:59;;;;;;;;;;;;;;;24.35;44.35;102314.59;4948956;29;19963;-89
2021/07/21 02:11:25;;;;;;;;;;;;;;;24.00;45.14;102310.06;4950056;29;19918;-89
2021/07/21 02:13:55;;;;;;;;;;;;;;;24.07;44.97;102307.69;4949446;29;19922;-89
2021/07/21 02:16:20;;;;;;;;;;;;;;;24.11;44.47;102311.97;4949568;29;19914;-86
2021/07/21 02:18:47;;;;;;;;;;;;;;;24.01;44.78;102311.84;4949302;29;19918;-89
2021/07/21 02:21:13;;;;;;;;;;;;;;;23.95;45.05;102308.69;4949780;29;20010;-90
2021/07/21 02:23:38;;;;;;;;;;;;;;;24.06;44.77;102309.59;4949227;29;19926;-90
2021/07/21 02:26:04;;;;;;;;;;;;;;;23.95;45.39;102317.88;4948814;29;19954;-90
2021/07/21 02:28:32;;;;;;;;;;;;;;;24.01;44.81;102311.84;4949673;29;20402;-89
2021/07/21 02:31:00;;;;;;;;;;;;;;;24.30;44.29;102315.97;4949177;29;19925;-90
2021/07/21 02:33:54;;;;;;;;;;;;;;;24.17;44.63;102305.03;4949311;29;19919;-91
2021/07/21 02:36:20;;;;;;;;;;;;;;;23.84;45.71;102309.53;4923945;29;19918;-89
2021/07/21 02:38:46;;;;;;;;;;;;;;;24.28;44.40;102306.91;4949490;29;19958;-90
2021/07/21 02:41:11;;;;;;;;;;;;;;;24.19;44.92;102311.34;4966038;29;19925;-90
2021/07/21 02:43:36;;;;;;;;;;;;;;;24.05;44.64;102313.34;4948866;29;19921;-87
2021/07/21 02:46:01;;;;;;;;;;;;;;;24.11;44.98;102313.84;4948876;29;20460;-89
2021/07/21 02:48:27;;;;;;;;;;;;;;;24.19;44.58;102309.44;4948773;29;20450;-89
2021/07/21 02:50:56;;;;;;;;;;;;;;;24.25;44.09;102316.34;4948922;29;20361;-90
2021/07/21 02:53:25;;;;;;;;;;;;;;;23.95;45.01;102314.22;4949297;29;19925;-90
2021/07/21 02:55:56;;;;;;;;;;;;;;;24.03;44.32;102315.34;4948382;29;19960;-89
2021/07/21 02:58:30;;;;;;;;;;;;;;;23.99;44.73;102324.00;4948777;29;19973;-90
2021/07/21 03:00:57;;;;;;;;;;;;;;;23.28;46.05;102322.22;4949141;29;19989;-90
2021/07/21 03:03:22;;;;;;;;;;;;;;;23.43;46.10;102322.91;4948372;29;19940;-90
2021/07/21 03:05:48;;;;;;;;;;;;;;;23.38;46.65;102325.13;4948917;29;19953;-89
2021/07/21 03:08:16;;;;;;;;;;;;;;;23.60;46.08;102317.94;4948634;29;19919;-89
2021/07/21 03:10:42;;;;;;;;;;;;;;;23.92;45.19;102320.88;4948244;29;19918;-89
2021/07/21 03:13:09;;;;;;;;;;;;;;;23.92;44.94;102323.66;4949097;29;20021;-91
2021/07/21 03:15:38;;;;;;;;;;;;;;;23.75;45.68;102319.47;4949032;29;19918;-89
2021/07/21 03:18:04;;;;;;;;;;;;;;;23.78;45.77;102332.13;4948483;29;19941;-90
2021/07/21 03:20:29;;;;;;;;;;;;;;;23.94;45.47;102332.69;4948862;29;19922;-89
2021/07/21 03:22:56;;;;;;;;;;;;;;;23.95;45.41;102328.06;4948919;29;19919;-89
2021/07/21 03:25:22;;;;;;;;;;;;;;;23.93;45.61;102339.22;4948616;29;20380;-87
2021/07/21 03:27:49;;;;;;;;;;;;;;;23.87;45.79;102336.97;4947958;29;20059;-89
2021/07/21 03:30:14;;;;;;;;;;;;;;;23.84;46.00;102337.19;4947713;29;19919;-90
2021/07/21 03:32:42;;;;;;;;;;;;;;;23.98;45.22;102334.19;4948249;29;19934;-89
2021/07/21 03:35:08;;;;;;;;;;;;;;;23.95;45.69;102328.06;4948738;29;20482;-89
2021/07/21 03:37:34;;;;;;;;;;;;;;;24.26;44.63;102329.16;4948927;29;19915;-91
2021/07/21 03:40:01;;;;;;;;;;;;;;;24.20;44.50;102333.34;4948505;29;19919;-90
2021/07/21 03:42:27;;;;;;;;;;;;;;;24.35;43.94;102331.19;4948535;29;20400;-89
2021/07/21 03:44:54;;;;;;;;;;;;;;;24.23;43.84;102324.78;4948342;29;19919;-86
2021/07/21 03:47:20;;;;;;;;;;;;;;;23.93;45.05;102330.03;4948183;29;19919;-90
2021/07/21 03:49:46;;;;;;;;;;;;;;;23.85;45.09;102327.91;4949104;29;19921;-90
2021/07/21 03:52:12;;;;;;;;;;;;;;;24.13;44.34;102320.13;4949177;29;19949;-90
2021/07/21 03:54:38;;;;;;;;;;;;;;;24.15;44.16;102321.75;4949371;29;20344;-90
2021/07/21 03:57:05;;;;;;;;;;;;;;;24.01;44.55;102328.41;4948554;29;19919;-90
2021/07/21 03:59:30;;;;;;;;;;;;;;;23.85;45.74;102319.59;4948284;29;19961;-90
2021/07/21 04:01:57;;;;;;;;;;;;;;;24.30;44.26;102330.66;4948261;29;19918;-87
2021/07/21 04:04:23;;;;;;;;;;;;;;;24.36;43.65;102332.94;4954602;29;19937;-89
2021/07/21 04:06:49;;;;;;;;;;;;;;;24.38;43.53;102328.16;4962073;28;20221;-90
2021/07/21 04:09:18;;;;;;;;;;;;;;;24.53;42.88;102320.47;4966204;29;19907;-90
2021/07/21 04:11:44;;;;;;;;;;;;;;;24.11;44.38;102320.28;4957410;29;19923;-90
2021/07/21 04:14:11;;;;;;;;;;;;;;;23.84;45.11;102327.00;4954980;29;20391;-89
2021/07/21 04:16:37;;;;;;;;;;;;;;;24.13;44.19;102315.47;4953239;29;19914;-89
2021/07/21 04:19:03;;;;;;;;;;;;;;;24.01;44.77;102316.50;4951419;29;20439;-90
2021/07/21 04:21:29;;;;;;;;;;;;;;;24.31;43.85;102324.16;4951234;29;19922;-90
2021/07/21 04:23:54;;;;;;;;;;;;;;;24.23;43.97;102326.66;4951426;29;19923;-89
2021/07/21 04:26:20;;;;;;;;;;;;;;;23.96;45.22;102329.78;4951439;29;19982;-90
2021/07/21 04:28:46;;;;;;;;;;;;;;;24.15;44.31;102330.03;4951078;29;19919;-88
2021/07/21 04:31:11;;;;;;;;;;;;;;;23.85;45.50;102328.81;4951361;29;20265;-89
2021/07/21 04:33:37;;;;;;;;;;;;;;;23.95;45.41;102328.91;4950323;29;19919;-90
2021/07/21 04:36:02;;;;;;;;;;;;;;;23.65;46.34;102330.34;4950506;29;19918;-88
2021/07/21 04:38:29;;;;;;;;;;;;;;;24.01;45.61;102338.59;4949903;29;19930;-90
2021/07/21 04:40:55;;;;;;;;;;;;;;;23.74;45.90;102331.50;4950173;29;19926;-88
2021/07/21 04:43:20;;;;;;;;;;;;;;;23.94;45.93;102343.75;4950368;29;19966;-89
2021/07/21 04:45:46;;;;;;;;;;;;;;;24.36;44.88;102344.00;4950227;29;19938;-89
2021/07/21 04:48:12;;;;;;;;;;;;;;;24.33;45.05;102337.84;4950296;29;19918;-89
2021/07/21 04:50:37;;;;;;;;;;;;;;;24.22;45.03;102338.75;4950563;29;19918;-89
2021/07/21 04:53:03;;;;;;;;;;;;;;;24.46;44.33;102340.47;4953136;29;19918;-88
2021/07/21 04:55:28;;;;;;;;;;;;;;;24.72;43.96;102350.25;4956260;29;19930;-88
2021/07/21 04:57:53;;;;;;;;;;;;;;;24.87;43.52;102352.75;4967943;29;20355;-87
2021/07/21 05:00:18;;;;;;;;;;;;;;;24.63;43.87;102359.34;4950926;29;19919;-89
2021/07/21 05:02:44;;;;;;;;;;;;;;;24.67;43.49;102360.84;4950149;29;19914;-89
2021/07/21 05:05:11;;;;;;;;;;;;;;;24.51;44.06;102358.44;4949432;29;19965;-90
2021/07/21 05:07:36;;;;;;;;;;;;;;;25.07;43.01;102365.75;4949891;29;19918;-89
2021/07/21 05:10:01;;;;;;;;;;;;;;;25.02;42.87;102373.59;4949810;29;19973;-89
2021/07/21 05:12:28;;;;;;;;;;;;;;;25.60;41.75;102366.81;4949700;29;20418;-90
2021/07/21 05:14:53;;;;;;;;;;;;;;;26.23;40.29;102365.91;4949978;29;19925;-89
2021/07/21 05:17:18;;;;;;;;;;;;;;;26.07;41.13;102363.63;4949761;29;19958;-89
2021/07/21 05:19:44;;;;;;;;;;;;;;;25.87;41.72;102369.03;4950018;29;19929;-89
2021/07/21 05:22:09;;;;;;;;;;;;;;;26.39;40.83;102369.06;4949573;29;19925;-89
2021/07/21 05:24:35;;;;;;;;;;;;;;;26.65;40.59;102371.34;4950168;29;19933;-90
2021/07/21 05:27:01;;;;;;;;;;;;;;;26.74;40.35;102373.28;4933884;29;19923;-90
2021/07/21 05:29:26;;;;;;;;;;;;;;;26.93;40.35;102371.56;4966849;29;19918;-89
2021/07/21 05:31:51;;;;;;;;;;;;;;;26.80;40.36;102369.03;4966699;29;19919;-89
2021/07/21 05:34:16;;;;;;;;;;;;;;;26.62;41.42;102379.94;4950076;29;19919;-89
2021/07/21 05:36:42;;;;;;;;;;;;;;;26.81;41.11;102373.56;4949682;29;19973;-89
2021/07/21 05:39:08;;;;;;;;;;;;;;;26.51;41.40;102372.56;4949702;29;19918;-89
2021/07/21 05:41:34;;;;;;;;;;;;;;;26.66;41.36;102376.78;4965954;29;19925;-89
2021/07/21 05:44:05;;;;;;;;;;;;;;;26.63;41.35;102376.13;4950792;29;19918;-88
2021/07/21 05:46:31;;;;;;;;;;;;;;;27.06;40.46;102377.72;4952926;29;19930;-88
2021/07/21 05:48:57;;;;;;;;;;;;;;;27.62;39.44;102380.84;4953331;29;19918;-89
2021/07/21 05:51:22;;;;;;;;;;;;;;;26.47;41.53;102380.31;4951255;29;19929;-88
2021/07/21 05:53:48;;;;;;;;;;;;;;;26.08;42.70;102374.59;4967873;29;19930;-89
2021/07/21 05:56:14;;;;;;;;;;;;;;;26.06;42.76;102376.63;4950729;29;19929;-90
2021/07/21 05:58:40;;;;;;;;;;;;;;;26.23;42.15;102380.66;4950339;29;19918;-88
2021/07/21 06:01:05;;;;;;;;;;;;;;;27.19;39.83;102380.19;4949576;29;19919;-88
2021/07/21 06:03:32;;;;;;;;;;;;;;;26.43;40.96;102373.28;4950496;29;19919;-88
2021/07/21 06:05:57;;;;;;;;;;;;;;;26.84;40.10;102384.41;4949546;29;20372;-88
2021/07/21 06:08:24;;;;;;;;;;;;;;;26.84;39.99;102382.53;4965442;29;19925;-89
2021/07/21 06:10:49;;;;;;;;;;;;;;;26.95;39.30;102391.72;4948079;29;19925;-90
2021/07/21 06:13:14;;;;;;;;;;;;;;;26.72;39.40;102402.19;4944508;29;20295;-90
2021/07/21 06:15:39;;;;;;;;;;;;;;;25.75;40.91;102403.41;4941968;29;19982;-90
2021/07/21 06:18:05;;;;;;;;;;;;;;;25.58;40.87;102407.66;4942030;29;19919;-90
2021/07/21 06:20:30;;;;;;;;;;;;;;;25.84;41.52;102397.03;4942812;29;20368;-89
2021/07/21 06:22:55;;;;;;;;;;;;;;;26.02;41.79;102400.09;4942715;29;19961;-89
2021/07/21 06:25:21;;;;;;;;;;;;;;;26.86;39.74;102399.91;4942718;29;19930;-89
2021/07/21 06:27:54;;;;;;;;;;;;;;;27.27;38.90;102397.03;4942932;29;20059;-90
2021/07/21 06:30:20;;;;;;;;;;;;;;;27.03;38.89;102405.78;4942097;29;20369;-89
2021/07/21 06:32:45;;;;;;;;;;;;;;;26.56;38.80;102409.13;4942014;29;19919;-84
2021/07/21 06:35:12;;;;;;;;;;;;;;;26.61;38.37;102406.81;4941315;29;19926;-87
2021/07/21 06:37:37;;;;;;;;;;;;;;;26.24;38.99;102423.13;4941630;29;20395;-86
2021/07/21 06:40:04;;;;;;;;;;;;;;;25.33;40.77;102422.75;4958239;29;19918;-86
2021/07/21 06:42:29;;;;;;;;;;;;;;;26.55;38.46;102423.16;4958071;29;19915;-86
2021/07/21 06:44:54;;;;;;;;;;;;;;;26.45;38.30;102420.31;4957667;29;19918;-84
2021/07/21 06:47:20;;;;;;;;;;;;;;;26.81;37.53;102430.00;4940736;29;19918;-85
2021/07/21 06:49:47;;;;;;;;;;;;;;;26.22;38.07;102427.97;4940729;29;19914;-86
2021/07/21 06:52:12;;;;;;;;;;;;;;;26.69;37.22;102433.88;4939654;29;19919;-88
2021/07/21 06:54:37;;;;;;;;;;;;;;;27.36;36.04;102431.47;4940480;29;19978;-87
2021/07/21 06:57:02;;;;;;;;;;;;;;;27.35;36.20;102440.81;4940571;29;20005;-86
2021/07/21 06:59:32;;;;;;;;;;;;;;;26.81;36.29;102438.34;4958525;29;19922;-88
2021/07/21 07:01:57;;;;;;;;;;;;;;;27.32;35.37;102439.19;4941406;29;19919;-87
2021/07/21 07:04:22;;;;;;;;;;;;;;;27.18;35.16;102440.47;4940650;29;20368;-87
2021/07/21 07:06:47;;;;;;;;;;;;;;;26.98;34.33;102439.56;4939806;29;20546;-87
2021/07/21 07:09:13;;;;;;;;;;;;;;;27.04;33.91;102440.88;4928296;29;19918;-88
2021/07/21 07:11:38;;;;;;;;;;;;;;;27.17;35.07;102441.47;4931647;29;19977;-88
2021/07/21 07:14:04;;;;;;;;;;;;;;;26.68;36.20;102446.03;4921532;29;19977;-87
2021/07/21 07:16:30;;;;;;;;;;;;;;;27.39;35.32;102450.63;4946230;29;19918;-87
2021/07/21 07:18:55;;;;;;;;;;;;;;;26.71;34.96;102451.31;4926120;29;19987;-86
2021/07/21 07:21:21;;;;;;;;;;;;;;;26.60;36.00;102445.81;4931120;29;19923;-85
2021/07/21 07:23:53;;;;;;;;;;;;;;;27.81;34.66;102446.66;4920975;29;20230;-85
2021/07/21 07:26:18;;;;;;;;;;;;;;;27.98;33.75;102445.94;4921860;29;19925;-89
2021/07/21 07:28:44;;;;;;;;;;;;;;;27.13;35.43;102447.47;4938748;29;19911;-84
2021/07/21 07:31:09;;;;;;;;;;;;;;;27.63;33.90;102450.19;4941386;29;19950;-86
2021/07/21 07:33:34;;;;;;;;;;;;;;;26.94;35.31;102451.09;4934721;29;19918;-86
2021/07/21 07:35:59;;;;;;;;;;;;;;;28.01;33.08;102455.91;4924251;29;19926;-86
2021/07/21 07:38:25;;;;;;;;;;;;;;;27.41;33.74;102457.78;4941238;29;20367;-82
2021/07/21 07:40:52;;;;;;;;;;;;;;;27.33;34.01;102457.63;4938182;29;20369;-82
2021/07/21 07:43:17;;;;;;;;;;;;;;;28.04;33.08;102450.03;4958055;28;19919;-84
2021/07/21 07:45:43;;;;;;;;;;;;;;;27.40;33.58;102453.25;4960021;29;19914;-84
2021/07/21 07:48:08;;;;;;;;;;;;;;;28.07;32.54;102455.31;4942922;29;20008;-85
2021/07/21 07:50:33;;;;;;;;;;;;;;;28.01;32.69;102450.34;4960186;29;19930;-88
2021/07/21 07:52:59;;;;;;;;;;;;;;;27.92;33.27;102447.38;4944603;29;20368;-86
2021/07/21 07:55:24;;;;;;;;;;;;;;;28.19;32.78;102442.97;4944951;29;20273;-84
2021/07/21 07:57:50;;;;;;;;;;;;;;;28.32;32.58;102450.09;4959510;29;20356;-84
2021/07/21 08:00:16;;;;;;;;;;;;;;;28.55;32.10;102448.72;4942370;29;19922;-84
2021/07/21 08:02:41;;;;;;;;;;;;;;;27.73;33.44;102455.72;4943637;29;20426;-83
2021/07/21 08:05:07;;;;;;;;;;;;;;;28.15;32.79;102458.19;4960624;29;19926;-87
2021/07/21 08:07:34;;;;;;;;;;;;;;;28.73;31.27;102459.94;4945054;29;20005;-87
2021/07/21 08:09:59;;;;;;;;;;;;;;;28.80;31.21;102458.28;4947293;29;19914;-84
2021/07/21 08:12:29;;;;;;;;;;;;;;;28.60;30.66;102446.38;4951097;29;20495;-81
2021/07/21 08:14:56;;;;;;;;;;;;;;;28.42;30.87;102446.25;4961747;29;19914;-82
2021/07/21 08:17:45;;;;;;;;;;;;;;;28.85;30.87;102457.81;4978666;29;19918;-83
2021/07/21 08:20:18;;;;;;;;;;;;;;;28.69;30.96;102452.06;4953810;29;19942;-84
2021/07/21 08:22:44;;;;;;;;;;;;;;;28.43;31.36;102456.38;4975233;23;19913;-84
2021/07/21 08:25:14;;;;;;;;;;;;;;;28.36;31.76;102458.00;4962073;29;19931;-84
2021/07/21 08:27:40;;;;;;;;;;;;;;;29.04;30.92;102459.63;4946866;29;19973;-85
2021/07/21 08:30:12;;;;;;;;;;;;;;;28.64;31.77;102458.09;4964943;29;19923;-86
2021/07/21 08:32:37;;;;;;;;;;;;;;;29.34;30.06;102461.22;4947683;29;19923;-83
2021/07/21 08:35:03;;;;;;;;;;;;;;;29.10;30.71;102459.00;4947221;29;20379;-83
2021/07/21 08:37:28;;;;;;;;;;;;;;;28.68;31.12;102458.66;4963280;29;19918;-83
2021/07/21 08:39:53;;;;;;;;;;;;;;;28.95;30.99;102460.56;4929637;29;20085;-84
2021/07/21 08:42:19;;;;;;;;;;;;;;;29.61;29.88;102464.09;4962110;29;20284;-83
2021/07/21 08:44:44;;;;;;;;;;;;;;;30.15;29.50;102458.47;4945340;29;19942;-84
2021/07/21 08:47:10;;;;;;;;;;;;;;;29.37;30.86;102459.16;4945272;29;19977;-85
2021/07/21 08:49:36;;;;;;;;;;;;;;;29.43;30.50;102459.41;4944689;29;19938;-83
2021/07/21 08:52:01;;;;;;;;;;;;;;;29.56;30.24;102460.91;4946901;29;19919;-83
2021/07/21 08:54:27;;;;;;;;;;;;;;;29.70;29.62;102464.00;4946526;29;19922;-85
2021/07/21 08:56:55;;;;;;;;;;;;;;;29.34;30.17;102472.38;4947791;29;19929;-85
2021/07/21 08:59:22;;;;;;;;;;;;;;;29.42;30.51;102467.91;4964967;29;19964;-83
2021/07/21 09:01:47;;;;;;;;;;;;;;;29.90;29.51;102461.06;4947380;29;19926;-84
2021/07/21 09:04:12;;;;;;;;;;;;;;;29.61;29.97;102462.19;4965136;29;19915;-83
2021/07/21 09:06:39;;;;;;;;;;;;;;;29.89;29.34;102459.31;4947046;29;19958;-83
2021/07/21 09:09:04;;;;;;;;;;;;;;;28.95;31.20;102458.63;4946180;29;20288;-83
2021/07/21 09:11:31;;;;;;;;;;;;;;;28.98;30.92;102469.47;4930960;29;19929;-84
2021/07/21 09:13:56;;;;;;;;;;;;;;;29.62;30.07;102465.84;4947511;29;20454;-85
2021/07/21 09:16:21;;;;;;;;;;;;;;;29.79;29.38;102462.19;4947330;29;19935;-86
2021/07/21 09:18:52;;;;;;;;;;;;;;;30.03;29.00;102461.53;4964093;29;20009;-84
2021/07/21 09:21:19;;;;;;;;;;;;;;;30.70;27.77;102458.13;4964404;29;20415;-84
2021/07/21 09:23:49;;;;;;;;;;;;;;;31.04;27.72;102464.75;4947353;29;20171;-85
2021/07/21 09:26:38;;;;;;;;;;;;;;;30.95;27.56;102463.84;4947014;29;19919;-85
2021/07/21 09:29:04;;;;;;;;;;;;;;;30.45;28.54;102464.63;4947745;29;19969;-86
2021/07/21 09:31:31;;;;;;;;;;;;;;;30.85;27.12;102463.09;4946701;29;19923;-84
2021/07/21 09:33:56;;;;;;;;;;;;;;;31.02;27.19;102462.13;4947246;29;19914;-86
2021/07/21 09:36:22;;;;;;;;;;;;;;;30.56;28.08;102461.56;4964295;29;19925;-86
2021/07/21 09:38:48;;;;;;;;;;;;;;;30.95;27.43;102463.84;4947484;29;20016;-86
2021/07/21 09:41:16;;;;;;;;;;;;;;;31.79;25.73;102461.94;4947180;29;19930;-86
2021/07/21 09:43:42;;;;;;;;;;;;;;;31.00;27.01;102453.03;4947905;29;19972;-86
2021/07/21 09:46:08;;;;;;;;;;;;;;;30.67;27.26;102452.88;4946965;29;19918;-84
2021/07/21 09:48:38;;;;;;;;;;;;;;;31.06;27.60;102451.50;4946104;29;19918;-86
2021/07/21 09:51:04;;;;;;;;;;;;;;;31.41;26.48;102453.13;4964139;29;20376;-87
2021/07/21 09:53:46;;;;;;;;;;;;;;;31.83;25.79;102453.19;4947236;29;19926;-88
2021/07/21 09:56:12;;;;;;;;;;;;;;;32.21;25.81;102451.63;4946498;29;19918;-84
2021/07/21 09:58:38;;;;;;;;;;;;;;;31.17;26.92;102445.56;4964232;29;19919;-87
2021/07/21 10:01:04;;;;;;;;;;;;;;;31.49;26.58;102445.81;4946763;29;19964;-86
2021/07/21 10:03:34;;;;;;;;;;;;;;;31.06;26.97;102445.91;4946358;29;19918;-88
2021/07/21 10:06:09;;;;;;;;;;;;;;;31.38;26.74;102453.47;4945686;29;19919;-86
2021/07/21 10:08:45;;;;;;;;;;;;;;;32.68;24.64;102459.22;4945603;29;19925;-88
2021/07/21 10:11:20;;;;;;;;;;;;;;;31.89;25.56;102461.78;4945430;29;19922;-86
2021/07/21 10:13:46;;;;;;;;;;;;;;;32.01;25.18;102455.81;4945978;29;19925;-85
2021/07/21 10:16:29;;;;;;;;;;;;;;;32.08;25.68;102454.06;4962509;29;19973;-87
2021/07/21 10:19:01;;;;;;;;;;;;;;;32.23;25.76;102454.25;4962435;29;19919;-85
2021/07/21 10:21:26;;;;;;;;;;;;;;;31.81;26.21;102458.97;4945348;29;19918;-85
2021/07/21 10:23:51;;;;;;;;;;;;;;;33.45;24.81;102454.81;4945163;29;19926;-85
2021/07/21 10:26:17;;;;;;;;;;;;;;;33.60;24.87;102456.81;4945107;29;19918;-86
2021/07/21 10:28:42;;;;;;;;;;;;;;;32.42;25.39;102456.66;4946091;29;19915;-85
2021/07/21 10:31:07;;;;;;;;;;;;;;;32.31;25.63;102457.91;4962148;29;20005;-85
2021/07/21 10:33:33;;;;;;;;;;;;;;;31.88;26.32;102446.03;4945835;29;19921;-84
2021/07/21 10:36:01;;;;;;;;;;;;;;;31.36;26.97;102447.19;4944965;29;19965;-85
2021/07/21 10:38:26;;;;;;;;;;;;;;;31.93;26.31;102449.19;4945650;29;19922;-87
2021/07/21 10:40:52;;;;;;;;;;;;;;;32.31;26.14;102452.31;4944531;29;19940;-83
2021/07/21 10:43:17;;;;;;;;;;;;;;;33.15;25.05;102443.38;4962516;29;19919;-86
2021/07/21 10:45:43;;;;;;;;;;;;;;;32.21;26.19;102451.63;4945649;29;19918;-85
2021/07/21 10:48:20;;;;;;;;;;;;;;;32.67;25.51;102443.47;4945474;29;19942;-86
2021/07/21 10:51:01;;;;;;;;;;;;;;;32.75;25.42;102442.56;4962402;29;19918;-84
2021/07/21 10:54:10;;;;;;;;;;;;;;;32.31;26.13;102443.03;4945636;29;19933;-84
2021/07/21 10:59:13;;;;;;;;;;;;;;;32.68;25.49;102436.78;4962465;29;19925;-87
2021/07/21 11:01:42;;;;;;;;;;;;;;;32.53;25.35;102437.72;4962473;29;19962;-87
2021/07/21 11:04:07;;;;;;;;;;;;;;;32.72;25.04;102436.44;4946048;29;19919;-85
2021/07/21 11:06:36;;;;;;;;;;;;;;;33.98;24.34;102438.06;4945256;29;20009;-86
2021/07/21 11:09:12;;;;;;;;;;;;;;;32.56;25.10;102440.16;4944607;29;19970;-84
2021/07/21 11:11:39;;;;;;;;;;;;;;;32.89;25.27;102440.06;4944896;29;19919;-87
2021/07/21 11:14:07;;;;;;;;;;;;;;;33.70;23.91;102432.19;4944833;29;19918;-86
2021/07/21 11:16:46;;;;;;;;;;;;;;;33.40;24.34;102429.25;4961537;28;19925;-83
2021/07/21 11:19:26;;;;;;;;;;;;;;;34.55;22.63;102425.38;4944358;29;19934;-85
2021/07/21 11:21:56;;;;;;;;;;;;;;;34.61;22.43;102427.41;4961435;29;20272;-85
2021/07/21 11:24:21;;;;;;;;;;;;;;;35.47;22.41;102425.88;4961628;29;19970;-84
2021/07/21 11:26:52;;;;;;;;;;;;;;;34.01;23.97;102429.25;4962452;29;19966;-83
2021/07/21 11:29:24;;;;;;;;;;;;;;;34.52;22.74;102424.91;4944424;29;19918;-84
2021/07/21 11:31:49;;;;;;;;;;;;;;;34.63;23.58;102421.56;4944630;29;19918;-84
2021/07/21 11:34:15;;;;;;;;;;;;;;;33.52;24.26;102430.56;4945125;29;19974;-84
2021/07/21 11:36:46;;;;;;;;;;;;;;;32.99;24.63;102429.47;4944411;29;19930;-83
2021/07/21 11:39:30;;;;;;;;;;;;;;;34.00;23.29;102435.06;4945536;29;19925;-84
2021/07/21 11:41:56;;;;;;;;;;;;;;;35.00;22.23;102421.63;4945342;29;20147;-85
2021/07/21 11:44:27;;;;;;;;;;;;;;;34.96;22.47;102429.59;4945056;29;19926;-84
2021/07/21 11:46:52;;;;;;;;;;;;;;;34.91;22.62;102424.56;4946061;29;19925;-85
2021/07/21 11:49:22;;;;;;;;;;;;;;;34.89;22.35;102423.03;4946222;29;19918;-85
2021/07/21 11:51:48;;;;;;;;;;;;;;;34.03;22.77;102423.47;4945227;29;19925;-85
2021/07/21 11:54:18;;;;;;;;;;;;;;;34.70;22.19;102418.88;4945156;29;19922;-85
2021/07/21 11:56:43;;;;;;;;;;;;;;;34.36;23.04;102421.19;4962320;29;19925;-85
2021/07/21 11:59:08;;;;;;;;;;;;;;;33.60;23.93;102428.75;4944217;29;19985;-85
2021/07/21 12:01:33;;;;;;;;;;;;;;;33.74;24.64;102419.53;4944886;29;20265;-85
2021/07/21 12:04:00;;;;;;;;;;;;;;;34.56;23.66;102413.06;4945748;29;19919;-84
2021/07/21 12:06:26;;;;;;;;;;;;;;;34.99;22.80;102411.47;4945081;29;19919;-84
2021/07/21 12:08:52;;;;;;;;;;;;;;;36.26;21.72;102416.38;4945043;29;19929;-85
2021/07/21 12:11:18;;;;;;;;;;;;;;;36.01;21.61;102414.03;4945485;29;19926;-85
2021/07/21 12:13:43;;;;;;;;;;;;;;;34.34;23.51;102414.03;4944822;29;19918;-84
2021/07/21 12:16:08;;;;;;;;;;;;;;;34.58;22.85;102413.72;4962299;29;19925;-85
2021/07/21 12:18:34;;;;;;;;;;;;;;;35.00;22.77;102413.19;4944797;29;19926;-86
2021/07/21 12:21:07;;;;;;;;;;;;;;;34.94;22.17;102410.13;4961969;29;20017;-84
2021/07/21 12:23:33;;;;;;;;;;;;;;;35.58;21.67;102408.44;4962452;29;19982;-85
2021/07/21 12:26:04;;;;;;;;;;;;;;;35.36;22.00;102406.69;4944880;29;19906;-84
2021/07/21 12:28:29;;;;;;;;;;;;;;;35.59;22.19;102415.81;4962695;28;19929;-84
2021/07/21 12:30:57;;;;;;;;;;;;;;;34.61;23.06;102407.72;4947752;29;19915;-84
2021/07/21 12:33:23;;;;;;;;;;;;;;;33.83;23.61;102409.97;4965027;29;19970;-85
2021/07/21 12:35:49;;;;;;;;;;;;;;;34.46;23.08;102418.09;4948514;29;19915;-83
2021/07/21 12:38:14;;;;;;;;;;;;;;;34.73;23.09;102407.22;4948391;29;19918;-85
2021/07/21 12:40:41;;;;;;;;;;;;;;;34.93;23.18;102408.38;4966068;29;19922;-84